createdAt,value
2018-09-17T00:01:06.696Z,45.40
2018-09-17T00:03:35.182Z,45.50
2018-09-17T00:06:04.443Z,45.40
2018-09-17T00:08:32.993Z,45.60
2018-09-17T00:11:02.015Z,45.50
2018-09-17T00:13:30.913Z,45.50
2018-09-17T00:15:59.426Z,45.50
2018-09-17T00:18:28.021Z,45.60
2018-09-17T00:20:56.659Z,45.60
2018-09-17T00:23:25.640Z,45.60
2018-09-17T00:25:54.942Z,45.70
2018-09-17T00:28:24.017Z,45.80
2018-09-17T00:30:52.571Z,45.80
2018-09-17T00:33:21.718Z,45.80
2018-09-17T00:35:50.582Z,45.90
2018-09-17T00:38:19.602Z,45.90
2018-09-17T00:40:48.266Z,46.00
2018-09-17T00:43:17.395Z,46.00
2018-09-17T00:45:46.076Z,46.10
2018-09-17T00:48:14.655Z,46.20
2018-09-17T00:50:44.318Z,46.20
2018-09-17T00:53:13.022Z,46.30
2018-09-17T00:55:41.678Z,46.40
2018-09-17T00:58:10.416Z,46.30
2018-09-17T01:00:39.953Z,46.40
2018-09-17T01:03:08.511Z,46.50
2018-09-17T01:05:38.234Z,46.50
2018-09-17T01:08:06.837Z,47.10
2018-09-17T01:10:35.360Z,47.20
2018-09-17T01:13:03.861Z,47.30
2018-09-17T01:15:32.409Z,47.30
2018-09-17T01:18:00.922Z,47.30
2018-09-17T01:20:29.932Z,47.20
2018-09-17T01:22:58.447Z,47.10
2018-09-17T01:25:27.520Z,47.10
2018-09-17T01:27:56.045Z,47.20
2018-09-17T01:30:24.655Z,47.20
2018-09-17T01:32:53.589Z,47.20
2018-09-17T01:35:22.731Z,47.10
2018-09-17T01:37:51.750Z,47.20
2018-09-17T01:40:20.993Z,47.30
2018-09-17T01:42:49.620Z,47.40
2018-09-17T01:45:18.273Z,47.60
2018-09-17T01:47:47.507Z,47.80
2018-09-17T01:50:16.197Z,48.10
2018-09-17T01:52:45.005Z,48.30
2018-09-17T01:55:14.207Z,48.50
2018-09-17T01:57:43.089Z,48.60
2018-09-17T02:00:12.664Z,48.80
2018-09-17T02:02:41.477Z,48.90
2018-09-17T02:05:10.021Z,49.00
2018-09-17T02:07:38.724Z,49.00
2018-09-17T02:10:09.176Z,49.00
2018-09-17T02:12:43.388Z,49.00
2018-09-17T02:15:13.191Z,49.10
2018-09-17T02:17:41.829Z,49.10
2018-09-17T02:20:13.094Z,49.20
2018-09-17T02:22:42.302Z,49.20
2018-09-17T02:25:10.941Z,49.30
2018-09-17T02:27:42.738Z,49.40
2018-09-17T02:30:12.116Z,49.50
2018-09-17T02:32:42.465Z,49.60
2018-09-17T02:35:11.147Z,49.60
2018-09-17T02:37:40.518Z,50.10
2018-09-17T02:40:13.272Z,49.30
2018-09-17T02:42:42.275Z,49.20
2018-09-17T02:45:10.811Z,49.20
2018-09-17T02:47:39.760Z,49.10
2018-09-17T02:50:08.411Z,49.10
2018-09-17T02:52:37.256Z,49.00
2018-09-17T02:55:07.117Z,49.00
2018-09-17T02:57:36.828Z,49.10
2018-09-17T03:00:06.321Z,49.20
2018-09-17T03:02:35.029Z,49.30
2018-09-17T03:05:03.621Z,49.40
2018-09-17T03:07:32.503Z,49.40
2018-09-17T03:10:01.438Z,49.40
2018-09-17T03:12:30.028Z,49.40
2018-09-17T03:15:04.777Z,49.50
2018-09-17T03:17:33.345Z,49.50
2018-09-17T03:20:02.056Z,49.80
2018-09-17T03:22:30.606Z,50.00
2018-09-17T03:24:59.668Z,50.10
2018-09-17T03:27:28.208Z,50.30
2018-09-17T03:29:56.904Z,50.40
2018-09-17T03:32:25.463Z,50.50
2018-09-17T03:34:54.004Z,50.50
2018-09-17T03:37:26.952Z,50.50
2018-09-17T03:39:55.835Z,50.60
2018-09-17T03:42:24.612Z,50.70
2018-09-17T03:44:53.183Z,50.80
2018-09-17T03:47:22.150Z,50.90
2018-09-17T03:49:51.109Z,50.80
2018-09-17T03:52:19.720Z,50.80
2018-09-17T03:54:48.291Z,50.80
2018-09-17T03:57:16.836Z,50.80
2018-09-17T03:59:45.455Z,50.80
2018-09-17T04:02:14.502Z,51.00
2018-09-17T04:04:43.085Z,51.00
2018-09-17T04:07:12.469Z,51.20
2018-09-17T04:09:43.968Z,51.20
2018-09-17T04:12:13.350Z,51.30
2018-09-17T04:14:41.925Z,51.50
2018-09-17T04:17:10.933Z,51.50
2018-09-17T04:19:39.995Z,51.60
2018-09-17T04:22:09.173Z,51.70
2018-09-17T04:24:38.088Z,52.30
2018-09-17T04:27:06.765Z,51.50
2018-09-17T04:29:35.334Z,51.60
2018-09-17T04:32:04.227Z,51.60
2018-09-17T04:34:32.956Z,51.70
2018-09-17T04:37:01.506Z,51.70
2018-09-17T04:39:30.119Z,51.70
2018-09-17T04:41:58.637Z,52.00
2018-09-17T04:44:27.236Z,52.00
2018-09-17T04:46:55.887Z,52.00
2018-09-17T04:49:24.384Z,52.20
2018-09-17T04:51:53.092Z,52.30
2018-09-17T04:54:21.776Z,52.30
2018-09-17T04:56:50.382Z,52.50
2018-09-17T04:59:18.972Z,52.70
2018-09-17T05:01:47.621Z,52.70
2018-09-17T05:04:16.986Z,53.10
2018-09-17T05:06:45.674Z,53.00
2018-09-17T05:09:14.246Z,53.00
2018-09-17T05:11:42.837Z,53.00
2018-09-17T05:14:11.547Z,52.80
2018-09-17T05:16:40.622Z,52.80
2018-09-17T05:19:09.212Z,52.50
2018-09-17T05:21:37.960Z,52.50
2018-09-17T05:24:06.983Z,52.60
2018-09-17T05:26:35.878Z,52.70
2018-09-17T05:29:04.537Z,53.10
2018-09-17T05:31:33.608Z,53.00
2018-09-17T05:34:02.930Z,53.00
2018-09-17T05:36:31.432Z,53.20
2018-09-17T05:38:59.907Z,53.40
2018-09-17T05:41:28.393Z,53.60
2018-09-17T05:43:57.586Z,53.60
2018-09-17T05:46:26.135Z,53.70
2018-09-17T05:48:55.319Z,53.70
2018-09-17T05:51:23.868Z,53.80
2018-09-17T05:53:52.544Z,53.80
2018-09-17T05:56:21.072Z,53.80
2018-09-17T05:58:49.931Z,53.70
2018-09-17T06:01:18.571Z,53.70
2018-09-17T06:03:47.135Z,53.50
2018-09-17T06:06:16.434Z,53.80
2018-09-17T06:08:45.104Z,54.10
2018-09-17T06:11:14.285Z,54.20
2018-09-17T06:13:43.723Z,54.40
2018-09-17T06:16:12.515Z,54.20
2018-09-17T06:18:42.395Z,54.30
2018-09-17T06:21:11.005Z,54.30
2018-09-17T06:23:40.205Z,54.20
2018-09-17T06:26:08.974Z,54.30
2018-09-17T06:28:38.056Z,54.60
2018-09-17T06:31:06.926Z,54.70
2018-09-17T06:33:35.560Z,54.30
2018-09-17T06:36:04.134Z,54.40
2018-09-17T06:38:32.837Z,54.50
2018-09-17T06:41:01.394Z,54.60
2018-09-17T06:43:29.936Z,54.60
2018-09-17T06:45:58.563Z,54.60
2018-09-17T06:48:27.585Z,54.40
2018-09-17T06:50:56.199Z,54.20
2018-09-17T06:53:24.970Z,54.20
2018-09-17T06:55:53.838Z,54.10
2018-09-17T06:58:22.508Z,54.00
2018-09-17T07:00:51.735Z,54.00
2018-09-17T07:03:20.339Z,54.00
2018-09-17T07:05:48.924Z,54.00
2018-09-17T07:08:25.209Z,53.80
2018-09-17T07:10:53.786Z,53.80
2018-09-17T07:13:22.361Z,53.70
2018-09-17T07:15:50.924Z,53.30
2018-09-17T07:18:19.884Z,53.10
2018-09-17T07:20:48.435Z,52.80
2018-09-17T07:23:17.246Z,52.50
2018-09-17T07:25:45.869Z,52.20
2018-09-17T07:28:15.028Z,51.80
2018-09-17T07:30:43.592Z,51.60
2018-09-17T07:33:12.424Z,51.50
2018-09-17T07:35:41.158Z,51.30
2018-09-17T07:38:09.815Z,51.00
2018-09-17T07:40:38.575Z,50.80
2018-09-17T07:43:07.502Z,50.70
2018-09-17T07:45:36.538Z,50.50
2018-09-17T07:48:05.271Z,50.40
2018-09-17T07:50:33.938Z,50.10
2018-09-17T07:53:02.548Z,50.00
2018-09-17T07:55:31.093Z,49.80
2018-09-17T07:57:59.639Z,49.60
2018-09-17T08:00:28.712Z,49.30
2018-09-17T08:03:00.512Z,49.40
2018-09-17T08:05:29.625Z,49.40
2018-09-17T08:07:58.151Z,49.60
2018-09-17T08:10:26.942Z,49.40
2018-09-17T08:12:55.491Z,48.90
2018-09-17T08:15:24.195Z,48.70
2018-09-17T08:17:53.304Z,48.80
2018-09-17T08:20:21.826Z,48.60
2018-09-17T08:22:50.399Z,48.50
2018-09-17T08:25:18.992Z,48.40
2018-09-17T08:27:47.555Z,48.30
2018-09-17T08:30:16.687Z,48.40
2018-09-17T08:32:45.284Z,48.40
2018-09-17T08:35:14.353Z,48.20
2018-09-17T08:37:42.939Z,48.20
2018-09-17T08:40:11.487Z,47.90
2018-09-17T08:42:40.463Z,47.80
2018-09-17T08:45:09.103Z,47.70
2018-09-17T08:47:37.652Z,47.40
2018-09-17T08:50:06.394Z,47.30
2018-09-17T08:52:35.000Z,47.20
2018-09-17T08:55:10.683Z,47.10
2018-09-17T08:57:40.293Z,46.90
2018-09-17T09:00:14.659Z,46.60
2018-09-17T09:02:44.070Z,46.80
2018-09-17T09:05:17.957Z,46.70
2018-09-17T09:07:52.322Z,46.50
2018-09-17T09:10:26.704Z,46.50
2018-09-17T09:13:01.345Z,46.50
2018-09-17T09:15:39.733Z,46.40
2018-09-17T09:18:09.146Z,46.10
2018-09-17T09:20:39.075Z,46.00
2018-09-17T09:23:07.780Z,45.70
2018-09-17T09:25:36.810Z,45.50
2018-09-17T09:28:05.680Z,45.50
2018-09-17T09:30:34.724Z,45.20
2018-09-17T09:33:03.577Z,45.10
2018-09-17T09:35:32.126Z,45.10
2018-09-17T09:38:00.675Z,45.00
2018-09-17T09:40:29.277Z,44.70
2018-09-17T09:42:58.071Z,44.20
2018-09-17T09:45:26.531Z,44.00
2018-09-17T09:47:55.102Z,43.60
2018-09-17T09:50:23.856Z,43.80
2018-09-17T09:52:52.588Z,43.10
2018-09-17T09:55:21.267Z,42.80
2018-09-17T09:57:50.085Z,42.70
2018-09-17T10:00:24.239Z,42.10
2018-09-17T10:02:58.297Z,41.70
2018-09-17T10:05:26.855Z,41.40
2018-09-17T10:07:56.830Z,40.90
2018-09-17T10:10:30.863Z,40.40
2018-09-17T10:13:04.689Z,40.70
2018-09-17T10:15:35.316Z,40.10
2018-09-17T10:18:09.635Z,39.50
2018-09-17T10:20:39.116Z,38.70
2018-09-17T10:23:07.816Z,38.30
2018-09-17T10:25:36.347Z,38.10
2018-09-17T10:28:04.876Z,38.30
2018-09-17T10:30:33.790Z,37.70
2018-09-17T10:33:02.269Z,37.50
2018-09-17T10:35:30.811Z,37.30
2018-09-17T10:37:59.311Z,36.90
2018-09-17T10:40:27.853Z,36.20
2018-09-17T10:42:56.430Z,36.60
2018-09-17T10:45:24.957Z,36.40
2018-09-17T10:47:53.590Z,36.40
2018-09-17T10:50:22.524Z,36.70
2018-09-17T10:52:51.483Z,35.80
2018-09-17T10:55:20.064Z,36.10
2018-09-17T10:57:48.901Z,35.80
2018-09-17T11:00:17.528Z,36.00
2018-09-17T11:02:46.142Z,35.70
2018-09-17T11:05:14.857Z,36.30
2018-09-17T11:07:43.398Z,36.00
2018-09-17T11:10:12.479Z,34.20
2018-09-17T11:12:41.459Z,32.90
2018-09-17T11:15:10.697Z,33.40
2018-09-17T11:17:39.440Z,33.40
2018-09-17T11:20:08.018Z,33.20
2018-09-17T11:22:37.089Z,33.50
2018-09-17T11:25:06.098Z,33.30
2018-09-17T11:27:34.693Z,33.20
2018-09-17T11:30:03.293Z,32.80
2018-09-17T11:32:31.820Z,32.90
2018-09-17T11:35:00.361Z,32.60
2018-09-17T11:37:28.927Z,32.20
2018-09-17T11:39:57.639Z,32.30
2018-09-17T11:42:26.238Z,32.10
2018-09-17T11:44:54.785Z,31.40
2018-09-17T11:47:23.524Z,31.00
2018-09-17T11:49:51.973Z,31.50
2018-09-17T11:52:20.574Z,30.90
2018-09-17T11:54:49.460Z,31.10
2018-09-17T11:57:18.399Z,30.90
2018-09-17T11:59:47.408Z,30.70
2018-09-17T12:02:21.433Z,30.80
2018-09-17T12:04:55.521Z,30.40
2018-09-17T12:07:29.344Z,29.90
2018-09-17T12:09:58.320Z,30.20
2018-09-17T12:12:26.851Z,30.40
2018-09-17T12:14:55.460Z,30.40
2018-09-17T12:17:24.135Z,30.10
2018-09-17T12:19:52.698Z,30.80
2018-09-17T12:22:21.196Z,30.30
2018-09-17T12:24:49.744Z,30.80
2018-09-17T12:27:18.247Z,30.70
2018-09-17T12:29:46.863Z,30.60
2018-09-17T12:32:15.636Z,30.80
2018-09-17T12:34:44.284Z,30.60
2018-09-17T12:37:13.417Z,30.40
2018-09-17T12:39:41.984Z,30.30
2018-09-17T12:42:11.158Z,30.20
2018-09-17T12:44:40.930Z,30.50
2018-09-17T12:47:10.663Z,30.60
2018-09-17T12:49:39.419Z,30.70
2018-09-17T12:52:08.019Z,30.20
2018-09-17T12:54:36.544Z,30.50
2018-09-17T12:57:05.730Z,30.50
2018-09-17T12:59:35.689Z,30.20
2018-09-17T13:02:04.374Z,30.40
2018-09-17T13:04:32.920Z,30.40
2018-09-17T13:07:01.530Z,30.40
2018-09-17T13:09:31.568Z,30.00
2018-09-17T13:12:00.554Z,30.30
2018-09-17T13:14:29.292Z,30.00
2018-09-17T13:16:57.997Z,30.00
2018-09-17T13:19:26.586Z,30.40
2018-09-17T13:21:55.195Z,30.30
2018-09-17T13:24:23.764Z,30.10
2018-09-17T13:26:52.623Z,30.20
2018-09-17T13:29:21.322Z,29.90
2018-09-17T13:31:50.106Z,30.00
2018-09-17T13:34:18.840Z,30.30
2018-09-17T13:36:47.676Z,30.30
2018-09-17T13:39:16.232Z,30.00
2018-09-17T13:41:44.804Z,30.40
2018-09-17T13:44:14.090Z,30.10
2018-09-17T13:46:42.746Z,30.00
2018-09-17T13:49:11.265Z,30.00
2018-09-17T13:51:39.922Z,30.00
2018-09-17T13:54:08.445Z,30.00
2018-09-17T13:56:37.509Z,30.00
2018-09-17T13:59:06.479Z,30.40
2018-09-17T14:01:35.157Z,30.00
2018-09-17T14:04:03.747Z,30.00
2018-09-17T14:06:32.209Z,30.00
2018-09-17T14:09:00.797Z,29.90
2018-09-17T14:11:29.380Z,29.70
2018-09-17T14:13:57.860Z,29.80
2018-09-17T14:16:31.603Z,29.70
2018-09-17T14:19:00.130Z,30.20
2018-09-17T14:21:28.689Z,29.60
2018-09-17T14:23:57.719Z,29.70
2018-09-17T14:26:27.262Z,29.60
2018-09-17T14:28:56.059Z,29.60
2018-09-17T14:31:30.015Z,29.80
2018-09-17T14:33:58.549Z,29.80
2018-09-17T14:36:27.063Z,29.80
2018-09-17T14:38:55.656Z,29.90
2018-09-17T14:41:24.222Z,29.70
2018-09-17T14:43:52.922Z,29.50
2018-09-17T14:46:21.459Z,29.40
2018-09-17T14:48:49.885Z,29.10
2018-09-17T14:51:18.895Z,29.00
2018-09-17T14:53:47.470Z,28.80
2018-09-17T14:56:16.045Z,29.00
2018-09-17T14:58:44.802Z,28.90
2018-09-17T15:01:13.970Z,28.90
2018-09-17T15:03:43.127Z,28.80
2018-09-17T15:06:12.536Z,29.10
2018-09-17T15:08:41.181Z,28.90
2018-09-17T15:11:09.706Z,28.80
2018-09-17T15:13:38.849Z,28.80
2018-09-17T15:16:07.464Z,28.70
2018-09-17T15:18:35.911Z,28.60
2018-09-17T15:21:04.485Z,28.60
2018-09-17T15:23:32.957Z,28.60
2018-09-17T15:26:01.522Z,28.50
2018-09-17T15:28:30.070Z,28.60
2018-09-17T15:30:58.992Z,28.70
2018-09-17T15:33:27.517Z,28.70
2018-09-17T15:35:56.077Z,28.70
2018-09-17T15:38:26.206Z,28.70
2018-09-17T15:40:54.858Z,29.20
2018-09-17T15:43:23.386Z,28.80
2018-09-17T15:45:51.968Z,28.90
2018-09-17T15:48:21.151Z,29.10
2018-09-17T15:50:49.893Z,29.00
2018-09-17T15:53:19.209Z,29.00
2018-09-17T15:55:47.919Z,29.20
2018-09-17T15:58:16.685Z,29.20
2018-09-17T16:00:45.299Z,29.40
2018-09-17T16:03:14.162Z,29.30
2018-09-17T16:05:43.202Z,29.50
2018-09-17T16:08:12.219Z,29.30
2018-09-17T16:10:40.811Z,29.30
2018-09-17T16:13:09.591Z,29.40
2018-09-17T16:15:38.178Z,29.50
2018-09-17T16:18:06.739Z,29.40
2018-09-17T16:20:35.515Z,29.60
2018-09-17T16:23:06.279Z,29.70
2018-09-17T16:25:37.106Z,29.70
2018-09-17T16:28:09.748Z,29.80
2018-09-17T16:30:39.936Z,30.20
2018-09-17T16:33:10.054Z,29.90
2018-09-17T16:35:39.557Z,30.50
2018-09-17T16:38:08.083Z,30.00
2018-09-17T16:40:36.564Z,29.80
2018-09-17T16:43:06.735Z,29.70
2018-09-17T16:45:35.364Z,29.90
2018-09-17T16:48:04.569Z,30.00
2018-09-17T16:50:33.200Z,29.90
2018-09-17T16:53:01.887Z,29.80
2018-09-17T16:55:32.825Z,29.90
2018-09-17T16:58:03.714Z,30.00
2018-09-17T17:00:32.703Z,30.00
2018-09-17T17:03:01.219Z,30.00
2018-09-17T17:05:30.147Z,30.00
2018-09-17T17:08:06.475Z,30.10
2018-09-17T17:10:35.188Z,30.30
2018-09-17T17:13:04.272Z,30.40
2018-09-17T17:15:33.017Z,30.70
2018-09-17T17:18:01.595Z,30.90
2018-09-17T17:20:31.280Z,31.10
2018-09-17T17:23:00.233Z,31.20
2018-09-17T17:25:28.900Z,31.30
2018-09-17T17:27:58.012Z,32.20
2018-09-17T17:30:27.342Z,31.70
2018-09-17T17:32:56.017Z,31.90
2018-09-17T17:35:24.685Z,32.00
2018-09-17T17:37:53.349Z,32.20
2018-09-17T17:40:22.288Z,32.30
2018-09-17T17:42:50.981Z,32.50
2018-09-17T17:45:20.234Z,32.70
2018-09-17T17:47:49.658Z,32.70
2018-09-17T17:50:20.554Z,33.00
2018-09-17T17:52:49.691Z,33.10
2018-09-17T17:55:18.410Z,33.20
2018-09-17T17:57:48.886Z,33.30
2018-09-17T18:00:17.527Z,33.50
2018-09-17T18:02:46.267Z,33.60
2018-09-17T18:05:15.044Z,33.70
2018-09-17T18:07:45.402Z,33.90
2018-09-17T18:10:14.939Z,34.00
2018-09-17T18:12:43.788Z,34.10
2018-09-17T18:15:12.694Z,34.30
2018-09-17T18:17:41.293Z,34.50
2018-09-17T18:20:09.896Z,34.60
2018-09-17T18:22:43.343Z,34.70
2018-09-17T18:25:15.494Z,34.90
2018-09-17T18:27:46.571Z,35.00
2018-09-17T18:30:19.068Z,35.00
2018-09-17T18:32:50.128Z,35.10
2018-09-17T18:35:21.214Z,35.30
2018-09-17T18:37:52.431Z,35.40
2018-09-17T18:40:23.956Z,35.50
2018-09-17T18:42:55.802Z,35.70
2018-09-17T18:45:29.574Z,35.70
2018-09-17T18:48:02.035Z,35.90
2018-09-17T18:50:32.622Z,36.10
2018-09-17T18:53:03.526Z,36.10
2018-09-17T18:55:34.086Z,36.30
2018-09-17T18:58:04.814Z,36.50
2018-09-17T19:00:37.850Z,36.60
2018-09-17T19:03:08.406Z,36.60
2018-09-17T19:05:42.014Z,36.80
2018-09-17T19:08:10.525Z,36.90
2018-09-17T19:10:40.076Z,37.00
2018-09-17T19:13:08.999Z,37.10
2018-09-17T19:15:42.729Z,37.20
2018-09-17T19:18:18.402Z,37.30
2018-09-17T19:20:48.365Z,37.30
2018-09-17T19:23:22.187Z,37.50
2018-09-17T19:25:50.886Z,37.50
2018-09-17T19:28:24.624Z,37.60
2018-09-17T19:30:53.047Z,37.70
2018-09-17T19:33:21.556Z,37.80
2018-09-17T19:35:50.215Z,37.90
2018-09-17T19:38:24.227Z,37.90
2018-09-17T19:40:52.759Z,37.90
2018-09-17T19:43:21.490Z,37.90
2018-09-17T19:45:55.327Z,37.90
2018-09-17T19:48:23.902Z,37.90
2018-09-17T19:50:57.644Z,37.90
2018-09-17T19:53:26.193Z,38.00
2018-09-17T19:55:54.839Z,38.00
2018-09-17T19:58:28.748Z,37.90
2018-09-17T20:00:57.301Z,37.80
2018-09-17T20:03:25.872Z,37.90
2018-09-17T20:06:00.024Z,37.90
2018-09-17T20:08:28.602Z,37.90
2018-09-17T20:10:57.113Z,37.80
2018-09-17T20:13:25.982Z,37.90
2018-09-17T20:15:54.537Z,37.90
2018-09-17T20:18:23.378Z,37.90
2018-09-17T20:20:51.928Z,37.80
2018-09-17T20:23:20.624Z,37.90
2018-09-17T20:25:49.112Z,38.00
2018-09-17T20:28:17.627Z,37.90
2018-09-17T20:30:46.588Z,37.90
2018-09-17T20:33:15.194Z,37.90
2018-09-17T20:35:43.865Z,37.70
2018-09-17T20:38:12.468Z,37.70
2018-09-17T20:40:41.123Z,37.70
2018-09-17T20:43:09.720Z,37.70
2018-09-17T20:45:39.633Z,37.70
2018-09-17T20:48:08.103Z,38.20
2018-09-17T20:50:36.625Z,37.70
2018-09-17T20:53:05.185Z,37.60
2018-09-17T20:55:33.919Z,37.60
2018-09-17T20:58:02.512Z,37.50
2018-09-17T21:00:31.095Z,37.50
2018-09-17T21:02:59.788Z,37.50
2018-09-17T21:05:28.687Z,37.50
2018-09-17T21:07:57.234Z,37.50
2018-09-17T21:10:25.815Z,37.50
2018-09-17T21:12:54.395Z,37.50
2018-09-17T21:15:22.973Z,37.50
2018-09-17T21:17:51.887Z,37.50
2018-09-17T21:20:20.450Z,37.60
2018-09-17T21:22:49.079Z,37.70
2018-09-17T21:25:18.173Z,37.80
2018-09-17T21:27:46.795Z,37.80
2018-09-17T21:30:15.539Z,37.80
2018-09-17T21:32:44.060Z,37.80
2018-09-17T21:35:12.699Z,37.40
2018-09-17T21:37:41.756Z,37.80
2018-09-17T21:40:10.693Z,37.90
2018-09-17T21:42:39.457Z,38.00
2018-09-17T21:45:10.013Z,38.20
2018-09-17T21:47:38.842Z,38.20
2018-09-17T21:50:07.420Z,38.30
2018-09-17T21:52:36.015Z,38.30
2018-09-17T21:55:04.843Z,38.40
2018-09-17T21:57:33.420Z,38.40
2018-09-17T22:00:01.942Z,38.40
2018-09-17T22:02:30.526Z,38.50
2018-09-17T22:04:59.122Z,38.60
2018-09-17T22:07:27.801Z,38.60
2018-09-17T22:09:56.650Z,38.80
2018-09-17T22:12:25.180Z,38.80
2018-09-17T22:14:53.656Z,38.80
2018-09-17T22:17:22.287Z,38.90
2018-09-17T22:19:51.061Z,39.00
2018-09-17T22:22:19.609Z,39.00
2018-09-17T22:24:48.514Z,39.00
2018-09-17T22:27:17.289Z,39.20
2018-09-17T22:29:45.925Z,39.20
2018-09-17T22:32:14.625Z,39.40
2018-09-17T22:34:43.177Z,39.50
2018-09-17T22:37:12.339Z,39.60
2018-09-17T22:39:41.347Z,39.60
2018-09-17T22:42:10.103Z,39.70
2018-09-17T22:44:39.672Z,39.80
2018-09-17T22:47:08.171Z,39.90
2018-09-17T22:49:36.905Z,39.90
2018-09-17T22:52:05.427Z,40.00
2018-09-17T22:54:33.949Z,40.00
2018-09-17T22:57:02.466Z,40.10
2018-09-17T22:59:31.000Z,40.30
2018-09-17T23:01:59.552Z,40.30
2018-09-17T23:04:28.200Z,40.40
2018-09-17T23:06:56.911Z,40.50
2018-09-17T23:09:25.441Z,40.50
2018-09-17T23:11:53.970Z,40.70
2018-09-17T23:14:22.845Z,41.10
2018-09-17T23:16:51.396Z,40.80
2018-09-17T23:19:19.933Z,40.90
2018-09-17T23:21:48.693Z,40.90
2018-09-17T23:24:17.337Z,41.00
2018-09-17T23:26:45.897Z,41.20
2018-09-17T23:29:14.747Z,41.50
2018-09-17T23:31:43.729Z,41.70
2018-09-17T23:34:12.266Z,41.70
2018-09-17T23:36:41.068Z,41.90
2018-09-17T23:39:11.178Z,42.00
2018-09-17T23:41:40.761Z,41.90
2018-09-17T23:44:09.327Z,42.70
2018-09-17T23:46:38.163Z,42.20
2018-09-17T23:49:07.474Z,42.50
2018-09-17T23:51:35.992Z,42.70
2018-09-17T23:54:04.517Z,42.80
2018-09-17T23:56:32.956Z,42.90
2018-09-17T23:59:01.524Z,42.80
